sensor_id;sensor_type;location;lat;lon;timestamp;pressure;altitude;pressure_sealevel;temperature;humidity
33151;BME280;19508;42.578;23.416;2023-01-26T00:01:26;94140.13;;;0.23;76.38
33151;BME280;19508;42.578;23.416;2023-01-26T00:03:53;94143.88;;;0.29;76.38
33151;BME280;19508;42.578;23.416;2023-01-26T00:06:20;94140.03;;;0.46;76.03
33151;BME280;19508;42.578;23.416;2023-01-26T00:08:51;94140.88;;;0.17;76.16
33151;BME280;19508;42.578;23.416;2023-01-26T00:11:19;94138.00;;;0.04;76.67
33151;BME280;19508;42.578;23.416;2023-01-26T00:13:45;94137.75;;;0.28;76.36
33151;BME280;19508;42.578;23.416;2023-01-26T00:16:13;94144.59;;;0.23;76.32
33151;BME280;19508;42.578;23.416;2023-01-26T00:18:39;94145.41;;;0.23;76.53
33151;BME280;19508;42.578;23.416;2023-01-26T00:21:07;94136.13;;;0.27;76.65
33151;BME280;19508;42.578;23.416;2023-01-26T00:23:34;94135.91;;;0.14;76.43
33151;BME280;19508;42.578;23.416;2023-01-26T00:25:59;94147.59;;;0.05;76.86
33151;BME280;19508;42.578;23.416;2023-01-26T00:28:26;94138.66;;;0.06;76.74
33151;BME280;19508;42.578;23.416;2023-01-26T00:30:51;94122.41;;;0.09;76.82
33151;BME280;19508;42.578;23.416;2023-01-26T00:33:17;94111.16;;;-0.22;77.39
33151;BME280;19508;42.578;23.416;2023-01-26T00:35:42;94116.09;;;-0.05;77.17
33151;BME280;19508;42.578;23.416;2023-01-26T00:38:12;94128.44;;;0.03;76.95
33151;BME280;19508;42.578;23.416;2023-01-26T00:40:39;94138.91;;;-0.04;77.29
33151;BME280;19508;42.578;23.416;2023-01-26T00:43:05;94137.38;;;0.02;76.85
33151;BME280;19508;42.578;23.416;2023-01-26T00:45:31;94113.72;;;-0.14;77.34
33151;BME280;19508;42.578;23.416;2023-01-26T00:47:56;94118.38;;;-0.16;76.80
33151;BME280;19508;42.578;23.416;2023-01-26T00:50:22;94117.19;;;-0.14;77.26
33151;BME280;19508;42.578;23.416;2023-01-26T00:52:47;94095.38;;;-0.16;77.18
33151;BME280;19508;42.578;23.416;2023-01-26T00:55:12;94117.44;;;-0.09;76.87
33151;BME280;19508;42.578;23.416;2023-01-26T00:57:39;94107.88;;;-0.10;76.63
33151;BME280;19508;42.578;23.416;2023-01-26T01:00:06;94107.41;;;-0.13;76.86
33151;BME280;19508;42.578;23.416;2023-01-26T01:02:31;94100.22;;;-0.05;76.28
33151;BME280;19508;42.578;23.416;2023-01-26T01:04:57;94103.31;;;0.14;76.10
33151;BME280;19508;42.578;23.416;2023-01-26T01:07:22;94101.03;;;-0.04;75.94
33151;BME280;19508;42.578;23.416;2023-01-26T01:09:48;94095.56;;;0.12;75.78
33151;BME280;19508;42.578;23.416;2023-01-26T01:12:14;94097.19;;;0.13;75.23
33151;BME280;19508;42.578;23.416;2023-01-26T01:14:49;94098.22;;;0.12;75.36
33151;BME280;19508;42.578;23.416;2023-01-26T01:17:15;94100.13;;;0.18;74.92
33151;BME280;19508;42.578;23.416;2023-01-26T01:19:40;94091.44;;;-0.05;75.18
33151;BME280;19508;42.578;23.416;2023-01-26T01:22:05;94098.75;;;0.08;75.01
33151;BME280;19508;42.578;23.416;2023-01-26T01:24:31;94078.38;;;0.08;74.69
33151;BME280;19508;42.578;23.416;2023-01-26T01:26:58;94096.66;;;0.18;74.67
33151;BME280;19508;42.578;23.416;2023-01-26T01:29:23;94085.06;;;0.04;74.34
33151;BME280;19508;42.578;23.416;2023-01-26T01:31:49;94076.19;;;-0.03;74.28
33151;BME280;19508;42.578;23.416;2023-01-26T01:34:15;94090.97;;;0.06;74.61
33151;BME280;19508;42.578;23.416;2023-01-26T01:36:40;94085.16;;;-0.04;75.14
33151;BME280;19508;42.578;23.416;2023-01-26T01:39:06;94084.25;;;0.18;74.50
33151;BME280;19508;42.578;23.416;2023-01-26T01:41:31;94086.31;;;0.23;74.25
33151;BME280;19508;42.578;23.416;2023-01-26T01:44:14;94090.91;;;0.14;74.73
33151;BME280;19508;42.578;23.416;2023-01-26T01:46:57;94071.63;;;0.06;74.62
33151;BME280;19508;42.578;23.416;2023-01-26T01:49:31;94083.50;;;0.24;74.33
33151;BME280;19508;42.578;23.416;2023-01-26T01:54:34;94086.03;;;0.33;74.03
33151;BME280;19508;42.578;23.416;2023-01-26T01:57:05;94076.34;;;0.40;73.78
33151;BME280;19508;42.578;23.416;2023-01-26T01:59:52;94074.16;;;0.43;73.91
33151;BME280;19508;42.578;23.416;2023-01-26T02:02:19;94079.28;;;0.30;73.74
33151;BME280;19508;42.578;23.416;2023-01-26T02:04:45;94080.13;;;0.16;74.40
33151;BME280;19508;42.578;23.416;2023-01-26T02:07:11;94074.28;;;0.35;73.82
33151;BME280;19508;42.578;23.416;2023-01-26T02:09:40;94066.47;;;0.34;73.31
33151;BME280;19508;42.578;23.416;2023-01-26T02:12:29;94053.19;;;0.12;73.84
33151;BME280;19508;42.578;23.416;2023-01-26T02:14:56;94065.66;;;0.33;73.79
33151;BME280;19508;42.578;23.416;2023-01-26T02:17:22;94054.44;;;0.16;74.19
33151;BME280;19508;42.578;23.416;2023-01-26T02:22:57;94043.50;;;0.19;74.35
33151;BME280;19508;42.578;23.416;2023-01-26T02:25:44;94035.38;;;0.21;74.65
33151;BME280;19508;42.578;23.416;2023-01-26T02:28:13;94035.31;;;-0.15;75.05
33151;BME280;19508;42.578;23.416;2023-01-26T02:30:38;94032.91;;;0.19;74.15
33151;BME280;19508;42.578;23.416;2023-01-26T02:33:04;94020.22;;;0.15;74.11
33151;BME280;19508;42.578;23.416;2023-01-26T02:35:29;94032.53;;;0.22;74.00
33151;BME280;19508;42.578;23.416;2023-01-26T02:37:55;94030.72;;;0.08;74.11
33151;BME280;19508;42.578;23.416;2023-01-26T02:41:20;94031.47;;;0.02;74.52
33151;BME280;19508;42.578;23.416;2023-01-26T02:43:15;94034.47;;;-0.01;74.13
33151;BME280;19508;42.578;23.416;2023-01-26T02:45:40;94028.44;;;-0.10;74.71
33151;BME280;19508;42.578;23.416;2023-01-26T02:48:07;94027.63;;;-0.10;74.59
33151;BME280;19508;42.578;23.416;2023-01-26T02:50:33;94025.66;;;-0.08;74.78
33151;BME280;19508;42.578;23.416;2023-01-26T02:53:00;94011.75;;;-0.10;74.39
33151;BME280;19508;42.578;23.416;2023-01-26T02:55:26;94017.47;;;0.08;73.89
33151;BME280;19508;42.578;23.416;2023-01-26T02:58:03;94016.41;;;0.03;74.58
33151;BME280;19508;42.578;23.416;2023-01-26T03:00:31;94009.31;;;0.24;73.87
33151;BME280;19508;42.578;23.416;2023-01-26T03:02:58;94006.03;;;-0.14;74.05
33151;BME280;19508;42.578;23.416;2023-01-26T03:05:26;94008.56;;;-0.06;74.12
33151;BME280;19508;42.578;23.416;2023-01-26T03:07:51;93993.84;;;0.07;73.63
33151;BME280;19508;42.578;23.416;2023-01-26T03:10:17;93989.84;;;-0.04;74.24
33151;BME280;19508;42.578;23.416;2023-01-26T03:12:43;93997.78;;;-0.04;74.49
33151;BME280;19508;42.578;23.416;2023-01-26T03:15:09;93980.47;;;-0.07;74.08
33151;BME280;19508;42.578;23.416;2023-01-26T03:18:05;93988.94;;;-0.11;74.62
33151;BME280;19508;42.578;23.416;2023-01-26T03:20:49;93983.34;;;-0.02;74.32
33151;BME280;19508;42.578;23.416;2023-01-26T03:23:33;93974.34;;;-0.07;74.26
33151;BME280;19508;42.578;23.416;2023-01-26T03:26:17;93974.13;;;0.09;74.50
33151;BME280;19508;42.578;23.416;2023-01-26T03:29:01;93974.88;;;0.03;74.04
33151;BME280;19508;42.578;23.416;2023-01-26T03:31:26;93967.03;;;-0.05;73.72
33151;BME280;19508;42.578;23.416;2023-01-26T03:33:52;93950.69;;;-0.09;74.05
33151;BME280;19508;42.578;23.416;2023-01-26T03:36:17;93967.53;;;0.20;73.02
33151;BME280;19508;42.578;23.416;2023-01-26T03:38:43;93966.34;;;0.08;73.88
33151;BME280;19508;42.578;23.416;2023-01-26T03:41:08;93963.00;;;-0.01;73.70
33151;BME280;19508;42.578;23.416;2023-01-26T03:43:52;93967.13;;;0.02;74.00
33151;BME280;19508;42.578;23.416;2023-01-26T03:46:36;93963.81;;;-0.01;73.51
33151;BME280;19508;42.578;23.416;2023-01-26T03:49:24;93961.00;;;0.01;73.88
33151;BME280;19508;42.578;23.416;2023-01-26T03:52:08;93961.94;;;-0.07;74.09
33151;BME280;19508;42.578;23.416;2023-01-26T03:54:52;93957.09;;;-0.18;74.54
33151;BME280;19508;42.578;23.416;2023-01-26T03:57:36;93949.88;;;-0.09;74.14
33151;BME280;19508;42.578;23.416;2023-01-26T04:00:02;93945.47;;;-0.02;74.42
33151;BME280;19508;42.578;23.416;2023-01-26T04:02:28;93939.66;;;-0.12;74.28
33151;BME280;19508;42.578;23.416;2023-01-26T04:05:12;93935.47;;;-0.07;73.94
33151;BME280;19508;42.578;23.416;2023-01-26T04:08:04;93943.69;;;-0.16;74.60
33151;BME280;19508;42.578;23.416;2023-01-26T04:10:54;93944.75;;;0.04;73.63
33151;BME280;19508;42.578;23.416;2023-01-26T04:13:22;93943.09;;;0.03;73.66
33151;BME280;19508;42.578;23.416;2023-01-26T04:16:07;93936.50;;;0.14;73.42
33151;BME280;19508;42.578;23.416;2023-01-26T04:18:52;93925.53;;;0.38;72.55
33151;BME280;19508;42.578;23.416;2023-01-26T04:21:36;93909.78;;;0.30;71.67
33151;BME280;19508;42.578;23.416;2023-01-26T04:24:04;93902.75;;;0.01;71.84
33151;BME280;19508;42.578;23.416;2023-01-26T04:26:34;93918.78;;;0.14;72.23
33151;BME280;19508;42.578;23.416;2023-01-26T04:29:02;93903.38;;;0.24;71.74
33151;BME280;19508;42.578;23.416;2023-01-26T04:31:28;93902.38;;;0.25;71.48
33151;BME280;19508;42.578;23.416;2023-01-26T04:33:53;93906.31;;;0.30;71.31
33151;BME280;19508;42.578;23.416;2023-01-26T04:36:19;93919.38;;;-0.05;72.43
33151;BME280;19508;42.578;23.416;2023-01-26T04:38:44;93904.53;;;0.15;71.86
33151;BME280;19508;42.578;23.416;2023-01-26T04:41:09;93913.34;;;0.01;72.10
33151;BME280;19508;42.578;23.416;2023-01-26T04:43:35;93902.22;;;-0.09;72.50
33151;BME280;19508;42.578;23.416;2023-01-26T04:46:06;93906.03;;;0.03;72.19
33151;BME280;19508;42.578;23.416;2023-01-26T04:48:32;93899.72;;;0.25;71.77
33151;BME280;19508;42.578;23.416;2023-01-26T04:51:06;93883.81;;;0.19;71.67
33151;BME280;19508;42.578;23.416;2023-01-26T04:53:32;93894.31;;;0.12;71.36
33151;BME280;19508;42.578;23.416;2023-01-26T04:55:58;93894.72;;;0.09;71.31
33151;BME280;19508;42.578;23.416;2023-01-26T04:58:23;93892.88;;;0.10;71.69
33151;BME280;19508;42.578;23.416;2023-01-26T05:00:53;93903.91;;;0.13;71.65
33151;BME280;19508;42.578;23.416;2023-01-26T05:03:19;93885.88;;;0.23;70.87
33151;BME280;19508;42.578;23.416;2023-01-26T05:05:47;93902.66;;;0.31;70.90
33151;BME280;19508;42.578;23.416;2023-01-26T05:08:14;93894.06;;;0.50;70.04
33151;BME280;19508;42.578;23.416;2023-01-26T05:10:39;93901.28;;;0.35;70.56
33151;BME280;19508;42.578;23.416;2023-01-26T05:13:05;93892.44;;;0.49;70.21
33151;BME280;19508;42.578;23.416;2023-01-26T05:15:30;93898.06;;;0.61;69.80
33151;BME280;19508;42.578;23.416;2023-01-26T05:17:59;93877.66;;;0.61;69.89
33151;BME280;19508;42.578;23.416;2023-01-26T05:20:25;93898.88;;;0.61;69.52
33151;BME280;19508;42.578;23.416;2023-01-26T05:22:50;93890.25;;;0.59;69.68
33151;BME280;19508;42.578;23.416;2023-01-26T05:25:16;93879.19;;;0.49;70.35
33151;BME280;19508;42.578;23.416;2023-01-26T05:27:42;93876.53;;;0.49;70.19
33151;BME280;19508;42.578;23.416;2023-01-26T05:30:08;93874.19;;;0.39;70.08
33151;BME280;19508;42.578;23.416;2023-01-26T05:32:34;93868.34;;;0.44;70.26
33151;BME280;19508;42.578;23.416;2023-01-26T05:34:59;93885.88;;;0.45;70.33
33151;BME280;19508;42.578;23.416;2023-01-26T05:37:26;93885.69;;;0.46;70.00
33151;BME280;19508;42.578;23.416;2023-01-26T05:39:51;93875.47;;;0.22;70.69
33151;BME280;19508;42.578;23.416;2023-01-26T05:42:17;93883.31;;;0.58;69.62
33151;BME280;19508;42.578;23.416;2023-01-26T05:44:42;93875.91;;;0.47;69.71
33151;BME280;19508;42.578;23.416;2023-01-26T05:47:08;93884.00;;;0.67;69.24
33151;BME280;19508;42.578;23.416;2023-01-26T05:49:33;93878.28;;;0.42;69.77
33151;BME280;19508;42.578;23.416;2023-01-26T05:52:00;93877.81;;;0.53;70.18
33151;BME280;19508;42.578;23.416;2023-01-26T05:54:26;93881.19;;;0.47;69.83
33151;BME280;19508;42.578;23.416;2023-01-26T05:56:51;93874.91;;;0.76;69.08
33151;BME280;19508;42.578;23.416;2023-01-26T05:59:21;93883.66;;;0.48;70.08
33151;BME280;19508;42.578;23.416;2023-01-26T06:01:46;93873.22;;;0.68;69.23
33151;BME280;19508;42.578;23.416;2023-01-26T06:04:12;93861.38;;;0.64;69.20
33151;BME280;19508;42.578;23.416;2023-01-26T06:06:37;93871.41;;;0.69;69.60
33151;BME280;19508;42.578;23.416;2023-01-26T06:09:03;93858.09;;;0.62;69.59
33151;BME280;19508;42.578;23.416;2023-01-26T06:11:30;93856.84;;;0.58;69.43
33151;BME280;19508;42.578;23.416;2023-01-26T06:13:56;93860.97;;;0.67;69.39
33151;BME280;19508;42.578;23.416;2023-01-26T06:16:21;93858.63;;;0.79;69.75
33151;BME280;19508;42.578;23.416;2023-01-26T06:18:47;93861.50;;;0.84;69.20
33151;BME280;19508;42.578;23.416;2023-01-26T06:21:14;93859.59;;;0.99;68.33
33151;BME280;19508;42.578;23.416;2023-01-26T06:23:39;93867.25;;;0.88;68.73
33151;BME280;19508;42.578;23.416;2023-01-26T06:26:05;93859.16;;;0.96;69.21
33151;BME280;19508;42.578;23.416;2023-01-26T06:28:31;93857.75;;;1.00;68.64
33151;BME280;19508;42.578;23.416;2023-01-26T06:31:01;93857.91;;;0.92;69.04
33151;BME280;19508;42.578;23.416;2023-01-26T06:33:27;93853.75;;;0.82;69.23
33151;BME280;19508;42.578;23.416;2023-01-26T06:35:52;93839.59;;;0.97;68.96
33151;BME280;19508;42.578;23.416;2023-01-26T06:38:19;93860.06;;;1.09;68.44
33151;BME280;19508;42.578;23.416;2023-01-26T06:40:45;93841.34;;;1.18;67.92
33151;BME280;19508;42.578;23.416;2023-01-26T06:43:10;93860.34;;;1.21;67.82
33151;BME280;19508;42.578;23.416;2023-01-26T06:45:35;93858.00;;;1.39;67.32
33151;BME280;19508;42.578;23.416;2023-01-26T06:48:01;93850.06;;;1.46;66.84
33151;BME280;19508;42.578;23.416;2023-01-26T06:50:31;93850.28;;;1.51;66.62
33151;BME280;19508;42.578;23.416;2023-01-26T06:52:59;93851.66;;;1.40;66.63
33151;BME280;19508;42.578;23.416;2023-01-26T06:55:37;93851.50;;;1.49;66.64
33151;BME280;19508;42.578;23.416;2023-01-26T06:58:03;93854.25;;;1.27;67.08
33151;BME280;19508;42.578;23.416;2023-01-26T07:00:29;93853.16;;;1.15;67.55
33151;BME280;19508;42.578;23.416;2023-01-26T07:02:55;93859.78;;;0.98;68.49
33151;BME280;19508;42.578;23.416;2023-01-26T07:05:20;93847.47;;;1.18;68.02
33151;BME280;19508;42.578;23.416;2023-01-26T07:07:46;93840.50;;;1.17;67.79
33151;BME280;19508;42.578;23.416;2023-01-26T07:10:11;93839.03;;;1.08;68.43
33151;BME280;19508;42.578;23.416;2023-01-26T07:12:46;93838.88;;;1.16;69.13
33151;BME280;19508;42.578;23.416;2023-01-26T07:15:11;93848.13;;;0.92;69.16
33151;BME280;19508;42.578;23.416;2023-01-26T07:17:38;93838.88;;;1.16;68.41
33151;BME280;19508;42.578;23.416;2023-01-26T07:20:04;93834.09;;;0.98;69.16
33151;BME280;19508;42.578;23.416;2023-01-26T07:22:30;93834.22;;;1.25;68.32
33151;BME280;19508;42.578;23.416;2023-01-26T07:24:55;93828.34;;;1.29;68.26
33151;BME280;19508;42.578;23.416;2023-01-26T07:27:21;93825.06;;;1.27;67.93
33151;BME280;19508;42.578;23.416;2023-01-26T07:29:46;93825.31;;;1.32;67.65
33151;BME280;19508;42.578;23.416;2023-01-26T07:32:11;93832.84;;;1.35;67.72
33151;BME280;19508;42.578;23.416;2023-01-26T07:34:37;93828.84;;;1.53;66.88
33151;BME280;19508;42.578;23.416;2023-01-26T07:37:02;93825.56;;;1.51;67.24
33151;BME280;19508;42.578;23.416;2023-01-26T07:39:29;93808.09;;;1.69;66.42
33151;BME280;19508;42.578;23.416;2023-01-26T07:41:54;93810.16;;;1.74;66.41
33151;BME280;19508;42.578;23.416;2023-01-26T07:44:20;93821.78;;;1.73;66.71
33151;BME280;19508;42.578;23.416;2023-01-26T07:46:45;93827.28;;;1.65;66.26
33151;BME280;19508;42.578;23.416;2023-01-26T07:49:10;93825.09;;;1.34;67.16
33151;BME280;19508;42.578;23.416;2023-01-26T07:51:38;93821.84;;;1.32;67.51
33151;BME280;19508;42.578;23.416;2023-01-26T07:54:09;93814.59;;;1.19;67.57
33151;BME280;19508;42.578;23.416;2023-01-26T07:56:35;93819.38;;;1.30;67.72
33151;BME280;19508;42.578;23.416;2023-01-26T07:59:01;93816.44;;;1.19;67.43
33151;BME280;19508;42.578;23.416;2023-01-26T08:01:27;93815.78;;;1.10;68.27
33151;BME280;19508;42.578;23.416;2023-01-26T08:03:52;93804.59;;;1.15;68.27
33151;BME280;19508;42.578;23.416;2023-01-26T08:06:18;93811.53;;;1.57;66.72
33151;BME280;19508;42.578;23.416;2023-01-26T08:08:45;93809.41;;;1.39;67.22
33151;BME280;19508;42.578;23.416;2023-01-26T08:11:15;93805.03;;;1.18;67.76
33151;BME280;19508;42.578;23.416;2023-01-26T08:13:41;93801.91;;;1.49;67.69
33151;BME280;19508;42.578;23.416;2023-01-26T08:16:08;93798.09;;;1.65;66.82
33151;BME280;19508;42.578;23.416;2023-01-26T08:18:36;93801.75;;;1.64;67.29
33151;BME280;19508;42.578;23.416;2023-01-26T08:21:02;93810.56;;;1.71;66.53
33151;BME280;19508;42.578;23.416;2023-01-26T08:23:28;93791.97;;;1.71;66.62
33151;BME280;19508;42.578;23.416;2023-01-26T08:25:53;93797.50;;;1.76;66.32
33151;BME280;19508;42.578;23.416;2023-01-26T08:28:18;93795.47;;;1.72;66.51
33151;BME280;19508;42.578;23.416;2023-01-26T08:30:44;93786.91;;;1.89;66.08
33151;BME280;19508;42.578;23.416;2023-01-26T08:33:10;93787.34;;;2.13;65.60
33151;BME280;19508;42.578;23.416;2023-01-26T08:35:35;93786.94;;;2.29;65.22
33151;BME280;19508;42.578;23.416;2023-01-26T08:38:01;93782.66;;;2.28;64.65
33151;BME280;19508;42.578;23.416;2023-01-26T08:40:26;93783.09;;;2.25;64.85
33151;BME280;19508;42.578;23.416;2023-01-26T08:42:52;93795.97;;;2.41;64.16
33151;BME280;19508;42.578;23.416;2023-01-26T08:45:18;93788.59;;;2.37;63.99
33151;BME280;19508;42.578;23.416;2023-01-26T08:47:43;93791.25;;;2.50;64.03
33151;BME280;19508;42.578;23.416;2023-01-26T08:50:12;93788.81;;;2.35;64.38
33151;BME280;19508;42.578;23.416;2023-01-26T08:52:37;93799.22;;;2.30;64.20
33151;BME280;19508;42.578;23.416;2023-01-26T08:55:03;93797.78;;;2.21;64.49
33151;BME280;19508;42.578;23.416;2023-01-26T08:57:29;93786.53;;;2.12;64.31
33151;BME280;19508;42.578;23.416;2023-01-26T08:59:54;93797.16;;;2.12;64.34
33151;BME280;19508;42.578;23.416;2023-01-26T09:02:19;93780.22;;;2.07;64.76
33151;BME280;19508;42.578;23.416;2023-01-26T09:04:45;93792.88;;;2.18;64.89
33151;BME280;19508;42.578;23.416;2023-01-26T09:07:10;93800.03;;;2.17;65.15
33151;BME280;19508;42.578;23.416;2023-01-26T09:09:36;93781.63;;;2.09;65.24
33151;BME280;19508;42.578;23.416;2023-01-26T09:12:01;93786.56;;;2.32;65.18
33151;BME280;19508;42.578;23.416;2023-01-26T09:14:27;93777.97;;;2.57;64.58
33151;BME280;19508;42.578;23.416;2023-01-26T09:16:53;93758.56;;;2.36;63.40
33151;BME280;19508;42.578;23.416;2023-01-26T09:19:18;93768.56;;;2.47;63.90
33151;BME280;19508;42.578;23.416;2023-01-26T09:21:43;93752.19;;;2.31;64.42
33151;BME280;19508;42.578;23.416;2023-01-26T09:24:09;93752.22;;;2.24;65.60
33151;BME280;19508;42.578;23.416;2023-01-26T09:26:35;93757.13;;;2.40;64.68
33151;BME280;19508;42.578;23.416;2023-01-26T09:29:01;93749.13;;;2.67;64.32
33151;BME280;19508;42.578;23.416;2023-01-26T09:31:26;93746.88;;;2.31;65.17
33151;BME280;19508;42.578;23.416;2023-01-26T09:33:51;93741.97;;;2.74;64.15
33151;BME280;19508;42.578;23.416;2023-01-26T09:36:18;93750.09;;;2.92;63.56
33151;BME280;19508;42.578;23.416;2023-01-26T09:38:44;93748.47;;;2.91;63.27
33151;BME280;19508;42.578;23.416;2023-01-26T09:49:17;93752.78;;;2.86;62.91
33151;BME280;19508;42.578;23.416;2023-01-26T09:51:50;93731.94;;;2.82;63.62
33151;BME280;19508;42.578;23.416;2023-01-26T09:54:46;93723.16;;;2.55;63.41
33151;BME280;19508;42.578;23.416;2023-01-26T09:57:15;93719.88;;;2.67;64.08
33151;BME280;19508;42.578;23.416;2023-01-26T10:02:33;93738.28;;;2.55;63.73
33151;BME280;19508;42.578;23.416;2023-01-26T10:05:10;93734.78;;;2.81;63.50
33151;BME280;19508;42.578;23.416;2023-01-26T10:07:42;93726.25;;;2.26;64.80
33151;BME280;19508;42.578;23.416;2023-01-26T10:10:14;93725.03;;;2.35;64.57
33151;BME280;19508;42.578;23.416;2023-01-26T10:12:45;93734.44;;;2.31;64.45
33151;BME280;19508;42.578;23.416;2023-01-26T10:15:29;93721.13;;;2.44;63.62
33151;BME280;19508;42.578;23.416;2023-01-26T10:17:59;93715.00;;;2.57;63.89
33151;BME280;19508;42.578;23.416;2023-01-26T10:22:57;93687.13;;;2.79;63.02
33151;BME280;19508;42.578;23.416;2023-01-26T10:25:32;93686.53;;;2.71;63.79
33151;BME280;19508;42.578;23.416;2023-01-26T10:28:45;93674.00;;;2.91;63.21
33151;BME280;19508;42.578;23.416;2023-01-26T10:30:47;93670.91;;;2.94;62.72
33151;BME280;19508;42.578;23.416;2023-01-26T10:33:19;93677.66;;;2.90;63.39
33151;BME280;19508;42.578;23.416;2023-01-26T10:35:49;93662.97;;;2.88;63.25
33151;BME280;19508;42.578;23.416;2023-01-26T10:40:52;93642.94;;;3.23;61.62
33151;BME280;19508;42.578;23.416;2023-01-26T10:43:17;93634.50;;;3.33;62.00
33151;BME280;19508;42.578;23.416;2023-01-26T10:45:45;93635.09;;;3.66;61.33
33151;BME280;19508;42.578;23.416;2023-01-26T10:48:22;93628.56;;;3.69;60.78
33151;BME280;19508;42.578;23.416;2023-01-26T10:50:52;93626.44;;;3.78;60.23
33151;BME280;19508;42.578;23.416;2023-01-26T10:53:26;93614.75;;;3.79;60.01
33151;BME280;19508;42.578;23.416;2023-01-26T10:56:08;93606.28;;;3.88;59.68
33151;BME280;19508;42.578;23.416;2023-01-26T11:01:06;93590.84;;;3.72;60.01
33151;BME280;19508;42.578;23.416;2023-01-26T11:03:37;93590.88;;;3.65;60.75
33151;BME280;19508;42.578;23.416;2023-01-26T11:06:16;93585.75;;;3.39;61.23
33151;BME280;19508;42.578;23.416;2023-01-26T11:08:42;93589.09;;;3.59;60.53
33151;BME280;19508;42.578;23.416;2023-01-26T11:11:25;93596.41;;;3.64;60.15
33151;BME280;19508;42.578;23.416;2023-01-26T11:14:15;93585.66;;;3.52;60.73
33151;BME280;19508;42.578;23.416;2023-01-26T11:16:46;93581.81;;;3.17;62.30
33151;BME280;19508;42.578;23.416;2023-01-26T11:19:39;93579.28;;;3.28;62.34
33151;BME280;19508;42.578;23.416;2023-01-26T11:22:12;93563.16;;;3.48;61.60
33151;BME280;19508;42.578;23.416;2023-01-26T11:24:50;93556.31;;;3.59;61.13
33151;BME280;19508;42.578;23.416;2023-01-26T11:27:38;93556.81;;;3.49;62.19
33151;BME280;19508;42.578;23.416;2023-01-26T11:35:53;93539.50;;;3.08;63.40
33151;BME280;19508;42.578;23.416;2023-01-26T11:38:51;93540.53;;;3.32;63.19
33151;BME280;19508;42.578;23.416;2023-01-26T11:56:21;93526.75;;;2.79;65.33
33151;BME280;19508;42.578;23.416;2023-01-26T12:00:40;93528.47;;;2.67;65.38
33151;BME280;19508;42.578;23.416;2023-01-26T12:06:01;93519.25;;;2.69;65.67
33151;BME280;19508;42.578;23.416;2023-01-26T12:11:14;93506.78;;;2.70;65.78
33151;BME280;19508;42.578;23.416;2023-01-26T12:21:53;93490.59;;;3.09;65.03
33151;BME280;19508;42.578;23.416;2023-01-26T12:24:36;93491.16;;;2.80;66.28
33151;BME280;19508;42.578;23.416;2023-01-26T12:27:21;93481.59;;;2.72;66.77
33151;BME280;19508;42.578;23.416;2023-01-26T12:30:02;93473.84;;;2.33;67.61
33151;BME280;19508;42.578;23.416;2023-01-26T12:32:29;93479.53;;;2.36;68.31
33151;BME280;19508;42.578;23.416;2023-01-26T12:34:56;93470.13;;;2.40;68.48
33151;BME280;19508;42.578;23.416;2023-01-26T12:37:44;93461.53;;;2.45;68.93
33151;BME280;19508;42.578;23.416;2023-01-26T12:45:57;93461.03;;;2.23;70.18
33151;BME280;19508;42.578;23.416;2023-01-26T12:48:42;93455.81;;;2.41;69.69
33151;BME280;19508;42.578;23.416;2023-01-26T12:51:19;93456.41;;;2.43;69.43
33151;BME280;19508;42.578;23.416;2023-01-26T12:53:58;93446.31;;;2.59;69.42
33151;BME280;19508;42.578;23.416;2023-01-26T12:56:49;93450.13;;;2.69;69.53
33151;BME280;19508;42.578;23.416;2023-01-26T13:01:53;93445.97;;;2.48;69.71
33151;BME280;19508;42.578;23.416;2023-01-26T13:04:19;93449.63;;;2.47;69.31
33151;BME280;19508;42.578;23.416;2023-01-26T13:07:00;93451.41;;;2.60;69.36
33151;BME280;19508;42.578;23.416;2023-01-26T13:09:26;93438.75;;;2.55;69.22
33151;BME280;19508;42.578;23.416;2023-01-26T13:11:59;93443.72;;;2.45;70.02
33151;BME280;19508;42.578;23.416;2023-01-26T13:14:37;93449.28;;;2.37;70.31
33151;BME280;19508;42.578;23.416;2023-01-26T13:19:51;93440.34;;;2.32;70.63
33151;BME280;19508;42.578;23.416;2023-01-26T13:24:44;93438.09;;;2.67;69.64
33151;BME280;19508;42.578;23.416;2023-01-26T13:30:02;93434.56;;;2.73;68.92
33151;BME280;19508;42.578;23.416;2023-01-26T13:35:08;93420.19;;;2.80;68.51
33151;BME280;19508;42.578;23.416;2023-01-26T13:37:52;93430.44;;;3.08;68.09
33151;BME280;19508;42.578;23.416;2023-01-26T13:40:29;93419.84;;;3.02;68.44
33151;BME280;19508;42.578;23.416;2023-01-26T13:43:07;93423.00;;;3.17;67.58
33151;BME280;19508;42.578;23.416;2023-01-26T13:48:47;93410.59;;;3.04;67.71
33151;BME280;19508;42.578;23.416;2023-01-26T13:53:59;93405.88;;;3.06;67.23
33151;BME280;19508;42.578;23.416;2023-01-26T13:56:35;93398.66;;;3.14;66.78
33151;BME280;19508;42.578;23.416;2023-01-26T13:59:07;93400.22;;;3.21;66.59
33151;BME280;19508;42.578;23.416;2023-01-26T14:01:39;93400.00;;;3.23;66.40
33151;BME280;19508;42.578;23.416;2023-01-26T14:04:15;93388.50;;;3.29;66.04
33151;BME280;19508;42.578;23.416;2023-01-26T14:06:44;93383.19;;;3.04;65.94
33151;BME280;19508;42.578;23.416;2023-01-26T14:09:12;93379.28;;;3.06;65.91
33151;BME280;19508;42.578;23.416;2023-01-26T14:11:40;93376.31;;;2.96;66.53
33151;BME280;19508;42.578;23.416;2023-01-26T14:14:22;93374.28;;;3.17;66.45
33151;BME280;19508;42.578;23.416;2023-01-26T14:16:48;93373.94;;;3.06;66.21
33151;BME280;19508;42.578;23.416;2023-01-26T14:19:16;93371.34;;;3.25;65.83
33151;BME280;19508;42.578;23.416;2023-01-26T14:21:59;93373.41;;;3.41;65.59
33151;BME280;19508;42.578;23.416;2023-01-26T14:24:31;93361.53;;;3.25;65.44
33151;BME280;19508;42.578;23.416;2023-01-26T14:26:59;93363.81;;;3.40;64.88
33151;BME280;19508;42.578;23.416;2023-01-26T14:29:27;93375.34;;;3.34;65.20
33151;BME280;19508;42.578;23.416;2023-01-26T14:31:57;93361.44;;;3.32;65.41
33151;BME280;19508;42.578;23.416;2023-01-26T14:34:25;93362.47;;;3.31;65.13
33151;BME280;19508;42.578;23.416;2023-01-26T14:37:14;93364.72;;;3.34;64.85
33151;BME280;19508;42.578;23.416;2023-01-26T14:39:44;93354.78;;;3.41;64.99